createdAt,value
2018-05-23T00:00:31.408Z,5.15
2018-05-23T00:01:04.693Z,4.22
2018-05-23T00:01:37.960Z,4.87
2018-05-23T00:02:11.225Z,4.35
2018-05-23T00:02:44.488Z,4.93
2018-05-23T00:03:17.756Z,4.57
2018-05-23T00:03:51.030Z,5.20
2018-05-23T00:04:24.274Z,6.90
2018-05-23T00:04:57.545Z,5.05
2018-05-23T00:05:30.864Z,4.97
2018-05-23T00:06:04.908Z,5.30
2018-05-23T00:06:38.167Z,4.62
2018-05-23T00:07:11.427Z,5.55
2018-05-23T00:07:44.700Z,5.12
2018-05-23T00:08:17.957Z,4.87
2018-05-23T00:08:51.212Z,5.25
2018-05-23T00:09:24.551Z,6.15
2018-05-23T00:09:57.809Z,5.10
2018-05-23T00:10:31.851Z,5.12
2018-05-23T00:11:05.140Z,4.97
2018-05-23T00:11:38.402Z,4.90
2018-05-23T00:12:11.680Z,7.62
2018-05-23T00:12:44.945Z,5.07
2018-05-23T00:13:18.221Z,4.72
2018-05-23T00:13:52.257Z,5.00
2018-05-23T00:14:25.531Z,7.85
2018-05-23T00:14:58.789Z,4.53
2018-05-23T00:15:32.052Z,4.70
2018-05-23T00:16:05.326Z,5.95
2018-05-23T00:16:39.368Z,5.22
2018-05-23T00:17:12.648Z,5.47
2018-05-23T00:17:45.916Z,7.62
2018-05-23T00:18:19.170Z,5.62
2018-05-23T00:18:52.432Z,8.63
2018-05-23T00:19:25.693Z,5.35
2018-05-23T00:19:58.952Z,4.80
2018-05-23T00:20:32.221Z,5.28
2018-05-23T00:21:05.508Z,6.40
2018-05-23T00:21:38.771Z,4.68
2018-05-23T00:22:12.027Z,5.57
2018-05-23T00:22:46.050Z,3.95
2018-05-23T00:23:19.316Z,5.05
2018-05-23T00:23:53.345Z,4.87
2018-05-23T00:24:26.612Z,5.47
2018-05-23T00:24:59.889Z,4.70
2018-05-23T00:25:33.141Z,4.43
2018-05-23T00:26:06.419Z,4.97
2018-05-23T00:26:39.675Z,4.65
2018-05-23T00:27:12.944Z,4.62
2018-05-23T00:27:46.980Z,5.05
2018-05-23T00:28:21.012Z,4.40
2018-05-23T00:28:54.267Z,3.95
2018-05-23T00:29:27.545Z,4.43
2018-05-23T00:30:01.573Z,5.00
2018-05-23T00:30:34.854Z,4.05
2018-05-23T00:31:08.110Z,4.30
2018-05-23T00:31:41.396Z,6.78
2018-05-23T00:32:14.661Z,4.57
2018-05-23T00:32:48.696Z,4.37
2018-05-23T00:33:21.982Z,5.87
2018-05-23T00:33:55.247Z,4.50
2018-05-23T00:34:28.514Z,4.43
2018-05-23T00:35:01.777Z,4.72
2018-05-23T00:35:35.818Z,4.22
2018-05-23T00:36:09.081Z,4.43
2018-05-23T00:36:42.370Z,4.62
2018-05-23T00:37:15.628Z,6.65
2018-05-23T00:37:48.886Z,5.50
2018-05-23T00:38:22.917Z,5.10
2018-05-23T00:38:56.181Z,4.05
2018-05-23T00:39:29.440Z,5.47
2018-05-23T00:40:02.702Z,5.03
2018-05-23T00:40:35.978Z,4.75
2018-05-23T00:41:09.244Z,5.43
2018-05-23T00:41:42.520Z,4.72
2018-05-23T00:42:15.780Z,5.82
2018-05-23T00:42:49.058Z,6.45
2018-05-23T00:43:22.321Z,5.65
2018-05-23T00:43:55.579Z,4.30
2018-05-23T00:44:28.842Z,4.30
2018-05-23T00:45:02.108Z,5.18
2018-05-23T00:45:35.385Z,4.65
2018-05-23T00:46:08.645Z,4.95
2018-05-23T00:46:41.895Z,5.30
2018-05-23T00:47:15.931Z,5.32
2018-05-23T00:47:49.202Z,4.80
2018-05-23T00:48:23.221Z,4.65
2018-05-23T00:48:56.489Z,4.45
2018-05-23T00:49:29.765Z,7.03
2018-05-23T00:50:03.045Z,6.45
2018-05-23T00:50:36.306Z,4.90
2018-05-23T00:51:09.576Z,4.32
2018-05-23T00:51:43.621Z,7.65
2018-05-23T00:52:17.675Z,8.18
2018-05-23T00:52:51.687Z,4.45
2018-05-23T00:53:24.948Z,4.70
2018-05-23T00:53:58.220Z,4.60
2018-05-23T00:54:32.246Z,4.30
2018-05-23T00:55:17.341Z,6.22
2018-05-23T00:55:50.608Z,4.35
2018-05-23T00:56:23.882Z,4.07
2018-05-23T00:56:57.380Z,4.70
2018-05-23T00:57:30.665Z,4.37
2018-05-23T00:58:03.928Z,5.37
2018-05-23T00:58:37.188Z,4.82
2018-05-23T00:59:10.449Z,4.35
2018-05-23T00:59:43.980Z,5.72
2018-05-23T01:00:17.249Z,4.90
2018-05-23T01:00:50.520Z,7.80
2018-05-23T01:01:24.028Z,5.10
2018-05-23T01:01:58.095Z,5.00
2018-05-23T01:02:31.631Z,4.85
2018-05-23T01:03:04.898Z,4.65
2018-05-23T01:03:38.164Z,4.97
2018-05-23T01:04:11.436Z,6.40
2018-05-23T01:04:44.712Z,5.65
2018-05-23T01:05:17.981Z,4.57
2018-05-23T01:05:51.251Z,4.85
2018-05-23T01:06:25.311Z,4.78
2018-05-23T01:06:58.576Z,4.50
2018-05-23T01:07:31.876Z,5.70
2018-05-23T01:08:05.132Z,4.95
2018-05-23T01:08:38.434Z,5.22
2018-05-23T01:09:11.708Z,5.78
2018-05-23T01:09:44.988Z,5.18
2018-05-23T01:10:18.255Z,4.43
2018-05-23T01:10:51.531Z,7.07
2018-05-23T01:11:24.831Z,6.20
2018-05-23T01:11:59.632Z,5.15
2018-05-23T01:12:32.901Z,4.25
2018-05-23T01:13:06.171Z,4.87
2018-05-23T01:13:39.443Z,4.68
2018-05-23T01:14:12.724Z,4.60
2018-05-23T01:14:45.992Z,4.65
2018-05-23T01:15:19.263Z,4.72
2018-05-23T01:15:53.289Z,4.65
2018-05-23T01:16:26.560Z,5.65
2018-05-23T01:16:59.835Z,4.82
2018-05-23T01:17:33.088Z,5.03
2018-05-23T01:18:06.389Z,4.68
2018-05-23T01:18:40.408Z,5.20
2018-05-23T01:19:13.693Z,4.90
2018-05-23T01:19:46.986Z,4.70
2018-05-23T01:20:21.018Z,4.50
2018-05-23T01:20:54.290Z,6.90
2018-05-23T01:21:27.553Z,4.85
2018-05-23T01:22:00.904Z,4.68
2018-05-23T01:22:34.167Z,5.30
2018-05-23T01:23:07.445Z,4.90
2018-05-23T01:23:40.731Z,3.97
2018-05-23T01:24:13.976Z,4.87
2018-05-23T01:24:48.020Z,4.80
2018-05-23T01:25:21.298Z,5.03
2018-05-23T01:25:54.556Z,4.82
2018-05-23T01:26:28.580Z,4.55
2018-05-23T01:27:01.862Z,7.55
2018-05-23T01:27:35.137Z,4.55
2018-05-23T01:28:08.394Z,4.82
2018-05-23T01:28:41.652Z,4.12
2018-05-23T01:29:15.681Z,4.82
2018-05-23T01:29:48.976Z,4.85
2018-05-23T01:30:22.222Z,5.22
2018-05-23T01:30:56.266Z,5.12
2018-05-23T01:31:29.544Z,5.43
2018-05-23T01:32:02.842Z,5.28
2018-05-23T01:32:36.096Z,5.70
2018-05-23T01:33:09.369Z,5.40
2018-05-23T01:33:42.626Z,7.68
2018-05-23T01:34:16.661Z,4.53
2018-05-23T01:34:49.935Z,5.53
2018-05-23T01:35:23.188Z,5.95
2018-05-23T01:35:56.460Z,4.55
2018-05-23T01:36:30.494Z,4.70
2018-05-23T01:37:03.787Z,4.55
2018-05-23T01:37:37.040Z,4.80
2018-05-23T01:38:10.300Z,4.82
2018-05-23T01:38:43.564Z,4.25
2018-05-23T01:39:17.596Z,4.68
2018-05-23T01:39:50.860Z,4.97
2018-05-23T01:40:24.886Z,5.03
2018-05-23T01:40:58.144Z,7.45
2018-05-23T01:41:31.409Z,5.43
2018-05-23T01:42:04.709Z,4.85
2018-05-23T01:42:37.984Z,6.35
2018-05-23T01:43:11.254Z,5.20
2018-05-23T01:43:45.292Z,4.82
2018-05-23T01:44:18.580Z,7.47
2018-05-23T01:44:51.844Z,4.75
2018-05-23T01:45:25.128Z,5.07
2018-05-23T01:45:58.389Z,5.65
2018-05-23T01:46:31.689Z,4.90
2018-05-23T01:47:04.960Z,5.35
2018-05-23T01:47:38.231Z,7.32
2018-05-23T01:48:11.505Z,5.20
2018-05-23T01:48:56.561Z,4.47
2018-05-23T01:49:29.861Z,4.68
2018-05-23T01:50:03.868Z,6.40
2018-05-23T01:50:37.125Z,5.07
2018-05-23T01:51:10.397Z,5.15
2018-05-23T01:51:43.672Z,4.75
2018-05-23T01:52:17.697Z,4.32
2018-05-23T01:52:51.206Z,4.65
2018-05-23T01:53:24.473Z,5.20
2018-05-23T01:53:57.746Z,4.87
2018-05-23T01:54:31.014Z,5.05
2018-05-23T01:55:04.268Z,5.62
2018-05-23T01:55:37.553Z,4.62
2018-05-23T01:56:11.580Z,4.78
2018-05-23T01:56:44.851Z,4.95
2018-05-23T01:57:18.125Z,4.65
2018-05-23T01:57:51.402Z,4.68
2018-05-23T01:58:24.673Z,5.03
2018-05-23T01:58:57.958Z,5.20
2018-05-23T01:59:31.216Z,4.45
2018-05-23T02:00:05.274Z,4.87
2018-05-23T02:00:38.521Z,4.55
2018-05-23T02:01:11.776Z,6.28
2018-05-23T02:01:45.815Z,5.28
2018-05-23T02:02:19.081Z,4.50
2018-05-23T02:02:52.368Z,5.20
2018-05-23T02:03:25.632Z,5.35
2018-05-23T02:03:58.905Z,4.45
2018-05-23T02:04:32.942Z,4.68
2018-05-23T02:05:06.203Z,4.65
2018-05-23T02:05:39.467Z,4.90
2018-05-23T02:06:12.738Z,6.03
2018-05-23T02:06:46.005Z,4.18
2018-05-23T02:07:19.289Z,5.03
2018-05-23T02:07:52.564Z,4.95
2018-05-23T02:08:25.844Z,5.32
2018-05-23T02:08:59.135Z,4.97
2018-05-23T02:09:32.400Z,6.55
2018-05-23T02:10:05.674Z,4.53
2018-05-23T02:10:38.938Z,4.80
2018-05-23T02:11:12.221Z,5.10
2018-05-23T02:11:45.512Z,5.10
2018-05-23T02:12:18.785Z,5.22
2018-05-23T02:12:52.825Z,5.03
2018-05-23T02:13:26.871Z,5.05
2018-05-23T02:14:00.137Z,4.95
2018-05-23T02:14:33.408Z,4.50
2018-05-23T02:15:06.687Z,5.20
2018-05-23T02:15:39.945Z,6.20
2018-05-23T02:16:13.967Z,4.82
2018-05-23T02:16:47.229Z,5.55
2018-05-23T02:17:20.496Z,4.90
2018-05-23T02:17:53.776Z,5.20
2018-05-23T02:18:27.040Z,4.68
2018-05-23T02:19:00.310Z,5.97
2018-05-23T02:19:33.577Z,4.97
2018-05-23T02:20:06.849Z,4.40
2018-05-23T02:20:40.124Z,6.65
2018-05-23T02:21:13.617Z,5.10
2018-05-23T02:21:46.884Z,5.87
2018-05-23T02:22:20.151Z,7.30
2018-05-23T02:22:53.416Z,5.10
2018-05-23T02:23:26.681Z,5.40
2018-05-23T02:24:00.720Z,5.50
2018-05-23T02:24:33.981Z,5.25
2018-05-23T02:25:08.012Z,5.45
2018-05-23T02:25:42.049Z,4.80
2018-05-23T02:26:16.064Z,5.40
2018-05-23T02:26:49.344Z,5.07
2018-05-23T02:27:22.613Z,5.80
2018-05-23T02:27:56.660Z,5.00
2018-05-23T02:28:29.947Z,5.40
2018-05-23T02:29:03.219Z,5.03
2018-05-23T02:29:36.490Z,10.13
2018-05-23T02:30:09.755Z,5.43
2018-05-23T02:30:43.021Z,4.97
2018-05-23T02:31:17.050Z,6.87
2018-05-23T02:31:50.325Z,4.93
2018-05-23T02:32:23.587Z,5.07
2018-05-23T02:32:56.854Z,4.95
2018-05-23T02:33:30.913Z,6.10
2018-05-23T02:34:04.239Z,5.50
2018-05-23T02:34:37.513Z,4.80
2018-05-23T02:35:11.541Z,6.00
2018-05-23T02:35:44.813Z,6.37
2018-05-23T02:36:18.076Z,5.30
2018-05-23T02:36:51.348Z,5.12
2018-05-23T02:37:25.374Z,4.50
2018-05-23T02:37:58.644Z,5.03
2018-05-23T02:38:31.931Z,5.87
2018-05-23T02:39:05.987Z,5.22
2018-05-23T02:39:40.014Z,5.40
2018-05-23T02:40:13.289Z,5.20
2018-05-23T02:40:47.328Z,4.65
2018-05-23T02:41:20.580Z,6.87
2018-05-23T02:41:53.854Z,5.82
2018-05-23T02:42:27.132Z,4.62
2018-05-23T02:43:00.413Z,5.43
2018-05-23T02:43:33.687Z,4.78
2018-05-23T02:44:06.963Z,6.03
2018-05-23T02:44:41.313Z,6.72
2018-05-23T02:45:14.600Z,4.87
2018-05-23T02:45:47.897Z,7.45
2018-05-23T02:46:21.148Z,5.72
2018-05-23T02:46:54.407Z,4.90
2018-05-23T02:47:27.672Z,5.68
2018-05-23T02:48:00.940Z,5.87
2018-05-23T02:48:34.977Z,5.43
2018-05-23T02:49:09.009Z,5.22
2018-05-23T02:49:42.273Z,5.28
2018-05-23T02:50:15.545Z,5.15
2018-05-23T02:50:48.831Z,8.07
2018-05-23T02:51:22.085Z,5.43
2018-05-23T02:51:55.336Z,4.97
2018-05-23T02:52:29.369Z,5.03
2018-05-23T02:53:02.649Z,5.60
2018-05-23T02:53:35.951Z,5.43
2018-05-23T02:54:09.200Z,4.80
2018-05-23T02:54:42.470Z,4.68
2018-05-23T02:55:15.758Z,6.35
2018-05-23T02:55:49.013Z,5.40
2018-05-23T02:56:23.052Z,4.68
2018-05-23T02:56:56.318Z,5.62
2018-05-23T02:57:29.584Z,4.93
2018-05-23T02:58:02.859Z,5.90
2018-05-23T02:58:36.125Z,5.30
2018-05-23T02:59:10.165Z,4.70
2018-05-23T02:59:43.431Z,4.53
2018-05-23T03:00:16.696Z,7.07
2018-05-23T03:00:50.720Z,4.95
2018-05-23T03:01:23.993Z,5.12
2018-05-23T03:01:57.240Z,4.93
2018-05-23T03:02:31.273Z,5.78
2018-05-23T03:03:04.591Z,9.13
2018-05-23T03:03:37.830Z,5.65
2018-05-23T03:04:11.092Z,7.53
2018-05-23T03:04:45.136Z,8.57
2018-05-23T03:05:18.400Z,6.03
2018-05-23T03:05:51.670Z,5.12
2018-05-23T03:06:24.932Z,7.72
2018-05-23T03:06:58.236Z,7.78
2018-05-23T03:07:31.499Z,5.65
2018-05-23T03:08:05.546Z,4.95
2018-05-23T03:08:38.811Z,5.40
2018-05-23T03:09:12.083Z,5.07
2018-05-23T03:09:45.345Z,9.65
2018-05-23T03:10:18.611Z,4.80
2018-05-23T03:10:51.881Z,5.00
2018-05-23T03:11:25.904Z,5.87
2018-05-23T03:11:59.160Z,6.03
2018-05-23T03:12:33.193Z,5.15
2018-05-23T03:13:06.452Z,4.37
2018-05-23T03:13:39.721Z,5.43
2018-05-23T03:14:13.748Z,5.05
2018-05-23T03:14:47.012Z,4.82
2018-05-23T03:15:20.271Z,5.15
2018-05-23T03:15:54.319Z,5.80
2018-05-23T03:16:27.827Z,5.80
2018-05-23T03:17:01.076Z,5.87
2018-05-23T03:17:34.339Z,5.53
2018-05-23T03:18:07.610Z,5.15
2018-05-23T03:18:40.887Z,4.93
2018-05-23T03:19:14.171Z,6.00
2018-05-23T03:19:47.437Z,4.97
2018-05-23T03:20:20.728Z,5.90
2018-05-23T03:20:54.000Z,4.82
2018-05-23T03:21:27.285Z,5.32
2018-05-23T03:22:01.320Z,4.85
2018-05-23T03:22:34.582Z,5.35
2018-05-23T03:23:07.857Z,7.20
2018-05-23T03:23:41.133Z,5.12
2018-05-23T03:24:14.392Z,5.50
2018-05-23T03:24:48.430Z,5.12
2018-05-23T03:25:21.697Z,4.95
2018-05-23T03:25:54.961Z,5.68
2018-05-23T03:26:29.001Z,7.85
2018-05-23T03:27:02.593Z,4.90
2018-05-23T03:27:35.881Z,4.80
2018-05-23T03:28:09.168Z,6.35
2018-05-23T03:28:42.448Z,7.43
2018-05-23T03:29:15.724Z,5.40
2018-05-23T03:29:49.000Z,5.93
2018-05-23T03:30:22.264Z,6.80
2018-05-23T03:30:55.544Z,5.10
2018-05-23T03:31:28.811Z,5.05
2018-05-23T03:32:02.076Z,5.72
2018-05-23T03:32:35.344Z,5.28
2018-05-23T03:33:09.388Z,5.57
2018-05-23T03:33:42.665Z,5.65
2018-05-23T03:34:15.932Z,5.47
2018-05-23T03:34:49.453Z,5.25
2018-05-23T03:35:22.727Z,5.72
2018-05-23T03:35:55.991Z,5.55
2018-05-23T03:36:29.253Z,8.15
2018-05-23T03:37:02.503Z,5.05
2018-05-23T03:37:36.534Z,5.45
2018-05-23T03:38:09.788Z,5.87
2018-05-23T03:38:43.066Z,5.28
2018-05-23T03:39:16.324Z,5.05
2018-05-23T03:39:49.584Z,5.32
2018-05-23T03:40:22.869Z,4.93
2018-05-23T03:40:56.130Z,6.03
2018-05-23T03:41:29.402Z,5.53
2018-05-23T03:42:02.674Z,5.40
2018-05-23T03:42:35.927Z,5.30
2018-05-23T03:43:09.196Z,11.60
2018-05-23T03:43:43.238Z,5.47
2018-05-23T03:44:16.491Z,4.75
2018-05-23T03:44:49.764Z,5.55
2018-05-23T03:45:23.802Z,6.60
2018-05-23T03:45:57.150Z,5.50
2018-05-23T03:46:30.417Z,4.70
2018-05-23T03:47:03.673Z,6.47
2018-05-23T03:47:36.945Z,5.20
2018-05-23T03:48:10.197Z,7.35
2018-05-23T03:48:43.477Z,5.53
2018-05-23T03:49:16.736Z,5.55
2018-05-23T03:49:50.001Z,5.30
2018-05-23T03:50:24.030Z,5.12
2018-05-23T03:50:57.284Z,6.07
2018-05-23T03:51:30.557Z,5.45
2018-05-23T03:52:04.583Z,9.32
2018-05-23T03:52:37.848Z,6.20
2018-05-23T03:53:11.129Z,5.12
2018-05-23T03:53:44.411Z,5.43
2018-05-23T03:54:17.686Z,5.47
2018-05-23T03:54:51.704Z,5.43
2018-05-23T03:55:25.111Z,6.12
2018-05-23T03:55:58.229Z,6.30
2018-05-23T03:56:32.587Z,5.65
2018-05-23T03:57:05.891Z,5.65
2018-05-23T03:57:39.217Z,5.72
2018-05-23T03:58:12.492Z,6.20
2018-05-23T03:58:45.781Z,5.30
2018-05-23T03:59:19.913Z,6.12
2018-05-23T04:00:05.950Z,5.40
2018-05-23T04:00:51.872Z,6.15
2018-05-23T04:01:37.008Z,4.55
2018-05-23T04:02:22.031Z,5.57
2018-05-23T04:03:07.788Z,5.93
2018-05-23T04:03:53.849Z,7.60
2018-05-23T04:05:48.245Z,6.25
2018-05-23T04:06:33.211Z,6.15
2018-05-23T04:07:36.274Z,5.55
2018-05-23T04:08:09.552Z,5.28
2018-05-23T04:08:42.811Z,5.32
2018-05-23T04:09:16.085Z,5.85
2018-05-23T04:09:49.356Z,5.68
2018-05-23T04:10:22.618Z,5.62
2018-05-23T04:10:55.892Z,7.75
2018-05-23T04:11:29.180Z,5.37
2018-05-23T04:12:02.443Z,5.75
2018-05-23T04:12:36.498Z,6.05
2018-05-23T04:13:09.768Z,5.68
2018-05-23T04:13:43.132Z,6.20
2018-05-23T04:14:16.637Z,5.57
2018-05-23T04:14:49.905Z,5.50
2018-05-23T04:15:23.940Z,5.45
2018-05-23T04:15:57.206Z,5.60
2018-05-23T04:16:30.485Z,5.85
2018-05-23T04:17:03.758Z,7.10
2018-05-23T04:17:37.054Z,5.97
2018-05-23T04:18:11.092Z,5.78
2018-05-23T04:18:45.105Z,6.50
2018-05-23T04:19:18.611Z,5.97
2018-05-23T04:19:51.880Z,5.70
2018-05-23T04:20:25.157Z,6.00
2018-05-23T04:20:59.204Z,6.07
2018-05-23T04:21:32.484Z,5.78
2018-05-23T04:22:05.949Z,8.43
2018-05-23T04:22:39.529Z,6.65
2018-05-23T04:23:12.807Z,6.50
2018-05-23T04:23:46.098Z,6.00
2018-05-23T04:24:19.379Z,7.28
2018-05-23T04:24:52.993Z,6.03
2018-05-23T04:25:26.550Z,6.03
2018-05-23T04:26:00.144Z,6.12
2018-05-23T04:26:33.400Z,5.62
2018-05-23T04:27:06.673Z,6.95
2018-05-23T04:27:39.944Z,8.15
2018-05-23T04:28:13.208Z,7.57
2018-05-23T04:28:46.469Z,6.12
2018-05-23T04:29:19.773Z,6.18
2018-05-23T04:29:53.036Z,5.20
2018-05-23T04:30:26.294Z,6.57
2018-05-23T04:30:59.559Z,5.30
2018-05-23T04:31:32.832Z,6.62
2018-05-23T04:32:06.095Z,6.50
2018-05-23T04:32:39.431Z,6.87
2018-05-23T04:33:12.653Z,6.72
2018-05-23T04:33:45.927Z,5.75
2018-05-23T04:34:19.195Z,6.65
2018-05-23T04:34:52.468Z,9.20
2018-05-23T04:35:25.733Z,6.75
2018-05-23T04:35:59.760Z,6.87
2018-05-23T04:36:33.029Z,8.45
2018-05-23T04:37:06.325Z,5.97
2018-05-23T04:37:40.349Z,6.50
2018-05-23T04:38:13.629Z,6.80
2018-05-23T04:38:46.888Z,6.47
2018-05-23T04:39:20.232Z,6.12
2018-05-23T04:39:54.220Z,6.47
2018-05-23T04:40:28.247Z,7.60
2018-05-23T04:41:01.509Z,6.28
2018-05-23T04:41:34.773Z,5.75
2018-05-23T04:42:08.797Z,6.45
2018-05-23T04:42:42.070Z,5.75
2018-05-23T04:43:15.333Z,5.90
2018-05-23T04:43:49.368Z,5.40
2018-05-23T04:44:22.664Z,6.37
2018-05-23T04:44:55.948Z,8.13
2018-05-23T04:45:29.207Z,6.28
2018-05-23T04:46:02.468Z,7.82
2018-05-23T04:46:35.740Z,6.03
2018-05-23T04:47:09.773Z,7.30
2018-05-23T04:47:43.037Z,6.85
2018-05-23T04:48:16.300Z,6.65
2018-05-23T04:48:49.681Z,6.45
2018-05-23T04:49:22.871Z,6.22
2018-05-23T04:49:56.141Z,7.35
2018-05-23T04:50:30.193Z,8.70
2018-05-23T04:51:03.536Z,7.65
2018-05-23T04:51:36.803Z,7.28
2018-05-23T04:52:10.851Z,7.43
2018-05-23T04:52:44.095Z,7.57
2018-05-23T04:53:17.373Z,8.10
2018-05-23T04:53:50.621Z,6.15
2018-05-23T04:54:23.889Z,8.68
2018-05-23T04:54:57.200Z,6.45
2018-05-23T04:55:31.243Z,7.05
2018-05-23T04:56:04.496Z,7.05
2018-05-23T04:56:37.761Z,7.85
2018-05-23T04:57:11.033Z,6.50
2018-05-23T04:57:44.289Z,7.45
2018-05-23T04:58:17.560Z,8.82
2018-05-23T04:58:50.839Z,6.15
2018-05-23T04:59:24.106Z,8.02
2018-05-23T04:59:57.410Z,8.50
2018-05-23T05:00:30.676Z,6.95
2018-05-23T05:01:03.941Z,7.90
2018-05-23T05:01:37.205Z,9.30
2018-05-23T05:02:10.476Z,10.35
2018-05-23T05:02:43.742Z,8.02
2018-05-23T05:03:17.009Z,7.50
2018-05-23T05:03:50.286Z,7.45
2018-05-23T05:04:23.536Z,8.68
2018-05-23T05:04:56.811Z,8.05
2018-05-23T05:05:30.080Z,7.55
2018-05-23T05:06:03.349Z,7.05
2018-05-23T05:06:36.630Z,7.90
2018-05-23T05:07:09.876Z,8.48
2018-05-23T05:07:43.909Z,8.07
2018-05-23T05:08:17.173Z,7.43
2018-05-23T05:08:50.436Z,7.65
2018-05-23T05:09:23.969Z,8.57
2018-05-23T05:09:57.262Z,7.30
2018-05-23T05:10:30.512Z,7.85
2018-05-23T05:11:03.782Z,7.25
2018-05-23T05:11:37.056Z,6.15
2018-05-23T05:12:10.349Z,11.00
2018-05-23T05:12:43.607Z,7.20
2018-05-23T05:13:16.871Z,9.57
2018-05-23T05:13:50.165Z,10.57
2018-05-23T05:14:23.392Z,9.90
2018-05-23T05:14:56.687Z,8.68
2018-05-23T05:15:29.972Z,8.57
2018-05-23T05:16:03.268Z,9.00
2018-05-23T05:16:37.308Z,8.98
2018-05-23T05:17:10.574Z,8.55
2018-05-23T05:17:43.850Z,6.97
2018-05-23T05:18:17.897Z,10.20
2018-05-23T05:18:51.183Z,7.75
2018-05-23T05:19:24.461Z,10.50
2018-05-23T05:19:57.752Z,12.15
2018-05-23T05:20:31.049Z,10.15
2018-05-23T05:21:04.312Z,9.15
2018-05-23T05:21:37.583Z,13.57
2018-05-23T05:22:10.863Z,9.52
2018-05-23T05:22:44.121Z,9.43
2018-05-23T05:23:17.398Z,9.45
2018-05-23T05:23:50.668Z,10.63
2018-05-23T05:24:23.933Z,7.90
2018-05-23T05:24:57.245Z,8.77
2018-05-23T05:25:30.488Z,8.48
2018-05-23T05:26:03.752Z,9.20
2018-05-23T05:26:38.119Z,10.00
2018-05-23T05:27:11.373Z,9.98
2018-05-23T05:27:44.659Z,10.23
2018-05-23T05:28:17.935Z,9.32
2018-05-23T05:28:51.200Z,9.05
2018-05-23T05:29:24.481Z,9.73
2018-05-23T05:29:57.756Z,9.00
2018-05-23T05:30:31.023Z,8.48
2018-05-23T05:31:05.057Z,9.38
2018-05-23T05:31:38.347Z,9.20
2018-05-23T05:32:11.576Z,11.77
2018-05-23T05:32:45.630Z,9.80
2018-05-23T05:33:19.681Z,8.45
2018-05-23T05:33:53.217Z,10.23
2018-05-23T05:34:26.497Z,10.00
2018-05-23T05:35:00.549Z,10.52
2018-05-23T05:35:34.585Z,9.50
2018-05-23T05:36:07.854Z,9.50
2018-05-23T05:36:41.173Z,9.48
2018-05-23T05:37:14.450Z,8.57
2018-05-23T05:37:47.719Z,10.80
2018-05-23T05:38:21.001Z,9.07
2018-05-23T05:38:54.365Z,10.00
2018-05-23T05:39:27.541Z,8.70
2018-05-23T05:40:00.819Z,8.50
2018-05-23T05:40:34.093Z,9.13
2018-05-23T05:41:07.359Z,9.15
2018-05-23T05:41:40.623Z,9.05
2018-05-23T05:42:14.284Z,9.90
2018-05-23T05:42:47.853Z,8.90
2018-05-23T05:43:21.142Z,8.77
2018-05-23T05:43:54.395Z,8.88
2018-05-23T05:44:27.672Z,12.43
2018-05-23T05:45:00.928Z,9.95
2018-05-23T05:45:34.202Z,10.15
2018-05-23T05:46:08.240Z,10.45
2018-05-23T05:46:41.524Z,9.63
2018-05-23T05:47:15.000Z,9.93
2018-05-23T05:47:48.293Z,10.55
2018-05-23T05:48:21.598Z,12.95
2018-05-23T05:48:54.875Z,10.13
2018-05-23T05:49:28.169Z,12.27
2018-05-23T05:50:01.471Z,10.02
2018-05-23T05:50:34.778Z,9.77
2018-05-23T05:51:08.039Z,10.15
2018-05-23T05:51:41.322Z,13.82
2018-05-23T05:52:14.840Z,9.80
2018-05-23T05:52:48.131Z,12.57
2018-05-23T05:53:21.415Z,11.05
2018-05-23T05:53:54.699Z,11.15
2018-05-23T05:54:27.975Z,10.25
2018-05-23T05:55:01.258Z,10.82
2018-05-23T05:55:34.518Z,14.13
2018-05-23T05:56:07.774Z,9.93
2018-05-23T05:56:41.053Z,12.10
2018-05-23T05:57:14.317Z,11.48
2018-05-23T05:57:47.598Z,9.88
2018-05-23T05:58:21.124Z,11.57
2018-05-23T05:58:54.396Z,10.60
2018-05-23T05:59:27.663Z,9.52
2018-05-23T06:00:00.930Z,9.88
2018-05-23T06:00:34.219Z,11.00
2018-05-23T06:01:07.485Z,12.95
2018-05-23T06:01:40.763Z,11.25
2018-05-23T06:02:14.034Z,12.55
2018-05-23T06:02:48.068Z,10.20
2018-05-23T06:03:21.336Z,12.77
2018-05-23T06:03:54.661Z,12.23
2018-05-23T06:04:27.952Z,10.93
2018-05-23T06:05:01.224Z,11.23
2018-05-23T06:05:34.528Z,12.45
2018-05-23T06:06:07.797Z,11.35
2018-05-23T06:06:41.294Z,11.23
2018-05-23T06:07:15.343Z,12.18
2018-05-23T06:07:48.626Z,15.77
2018-05-23T06:08:22.924Z,13.82
2018-05-23T06:08:56.952Z,12.30
2018-05-23T06:09:30.250Z,13.23
2018-05-23T06:10:03.519Z,11.60
2018-05-23T06:10:36.804Z,12.43
2018-05-23T06:11:10.844Z,15.10
2018-05-23T06:11:44.136Z,11.43
2018-05-23T06:12:17.410Z,9.90
2018-05-23T06:12:50.680Z,12.05
2018-05-23T06:13:23.957Z,12.30
2018-05-23T06:13:57.485Z,12.30
2018-05-23T06:14:30.763Z,13.20
2018-05-23T06:15:04.109Z,11.70
2018-05-23T06:15:37.385Z,11.32
2018-05-23T06:16:10.656Z,13.52
2018-05-23T06:16:43.933Z,11.45
2018-05-23T06:17:17.217Z,12.05
2018-05-23T06:17:51.251Z,12.55
2018-05-23T06:18:24.533Z,11.38
2018-05-23T06:18:57.805Z,12.85
2018-05-23T06:19:31.098Z,12.07
2018-05-23T06:20:04.374Z,9.98
2018-05-23T06:20:37.680Z,13.95
2018-05-23T06:21:10.964Z,12.60
2018-05-23T06:21:44.544Z,11.65
2018-05-23T06:22:17.903Z,11.35
2018-05-23T06:22:51.105Z,11.07
2018-05-23T06:23:24.384Z,10.13
2018-05-23T06:23:57.665Z,10.13
2018-05-23T06:24:30.949Z,9.88
2018-05-23T06:25:04.228Z,9.73
2018-05-23T06:25:37.517Z,11.15
2018-05-23T06:26:10.819Z,12.18
2018-05-23T06:26:44.081Z,10.70
2018-05-23T06:27:17.421Z,11.35
2018-05-23T06:27:51.486Z,9.45
2018-05-23T06:28:26.530Z,10.75
2018-05-23T06:28:59.820Z,11.60
2018-05-23T06:29:33.139Z,11.98
2018-05-23T06:30:06.416Z,10.98
2018-05-23T06:30:39.707Z,10.30
2018-05-23T06:31:13.748Z,10.95
2018-05-23T06:31:47.028Z,9.48
2018-05-23T06:32:20.516Z,12.50
2018-05-23T06:32:53.788Z,12.10
2018-05-23T06:33:27.061Z,11.15
2018-05-23T06:34:00.334Z,10.18
2018-05-23T06:34:33.628Z,9.98
2018-05-23T06:35:06.896Z,10.32
2018-05-23T06:35:40.968Z,10.73
2018-05-23T06:36:15.015Z,10.95
2018-05-23T06:36:48.282Z,9.90
2018-05-23T06:37:21.548Z,11.55
2018-05-23T06:37:54.937Z,9.55
2018-05-23T06:38:28.860Z,10.95
2018-05-23T06:39:02.133Z,10.05
2018-05-23T06:39:35.631Z,10.57
2018-05-23T06:40:08.895Z,10.48
2018-05-23T06:40:42.165Z,11.98
2018-05-23T06:41:15.648Z,10.07
2018-05-23T06:41:48.916Z,10.00
2018-05-23T06:42:22.967Z,10.65
2018-05-23T06:42:56.233Z,9.73
2018-05-23T06:43:29.525Z,10.07
2018-05-23T06:44:02.771Z,11.25
2018-05-23T06:44:36.035Z,10.40
2018-05-23T06:45:10.073Z,13.25
2018-05-23T06:45:43.349Z,8.75
2018-05-23T06:46:16.628Z,9.32
2018-05-23T06:46:49.899Z,9.55
2018-05-23T06:47:23.175Z,10.60
2018-05-23T06:47:56.443Z,10.27
2018-05-23T06:48:29.718Z,10.85
2018-05-23T06:49:03.744Z,12.15
2018-05-23T06:49:37.037Z,10.73
2018-05-23T06:50:10.668Z,10.27
2018-05-23T06:50:43.822Z,10.32
2018-05-23T06:51:17.098Z,9.52
2018-05-23T06:51:50.385Z,12.10
2018-05-23T06:52:23.660Z,10.70
2018-05-23T06:52:56.949Z,10.55
2018-05-23T06:53:30.441Z,9.52
2018-05-23T06:54:03.724Z,10.68
2018-05-23T06:54:37.746Z,9.60
2018-05-23T06:55:12.000Z,8.32
2018-05-23T06:55:45.269Z,9.43
2018-05-23T06:56:18.538Z,10.98
2018-05-23T06:56:51.809Z,9.60
2018-05-23T06:57:25.075Z,10.73
2018-05-23T06:57:58.329Z,9.88
2018-05-23T06:58:31.597Z,10.82
2018-05-23T06:59:04.893Z,9.82
2018-05-23T06:59:38.166Z,9.02
2018-05-23T07:00:11.440Z,10.13
2018-05-23T07:00:44.712Z,10.15
2018-05-23T07:01:18.010Z,14.48
2018-05-23T07:01:51.290Z,12.10
2018-05-23T07:02:25.331Z,9.93
2018-05-23T07:02:58.598Z,10.38
2018-05-23T07:03:31.898Z,10.70
2018-05-23T07:04:05.165Z,9.45
2018-05-23T07:04:38.458Z,12.37
2018-05-23T07:05:11.720Z,11.20
2018-05-23T07:05:45.027Z,10.10
2018-05-23T07:06:18.291Z,9.23
2018-05-23T07:06:51.564Z,8.80
2018-05-23T07:07:24.837Z,8.75
2018-05-23T07:07:58.102Z,9.73
2018-05-23T07:08:32.128Z,11.05
2018-05-23T07:09:06.189Z,8.05
2018-05-23T07:09:39.479Z,7.68
2018-05-23T07:10:12.744Z,8.48
2018-05-23T07:10:46.053Z,9.10
2018-05-23T07:11:19.329Z,8.98
2018-05-23T07:11:53.181Z,10.18
2018-05-23T07:12:26.448Z,8.70
2018-05-23T07:12:59.704Z,8.88
2018-05-23T07:13:32.980Z,10.05
2018-05-23T07:14:06.237Z,8.68
2018-05-23T07:14:39.504Z,9.25
2018-05-23T07:15:12.771Z,10.13
2018-05-23T07:15:46.058Z,8.73
2018-05-23T07:16:19.540Z,9.20
2018-05-23T07:16:52.818Z,11.48
2018-05-23T07:17:26.079Z,9.32
2018-05-23T07:17:59.394Z,7.68
2018-05-23T07:18:32.620Z,6.85
2018-05-23T07:19:05.888Z,8.32
2018-05-23T07:19:39.151Z,8.95
2018-05-23T07:20:12.433Z,9.48
2018-05-23T07:20:45.688Z,7.62
2018-05-23T07:21:19.744Z,6.53
2018-05-23T07:21:53.860Z,7.62
2018-05-23T07:22:27.156Z,7.87
2018-05-23T07:23:00.462Z,8.05
2018-05-23T07:23:33.728Z,7.55
2018-05-23T07:24:07.769Z,8.85
2018-05-23T07:24:41.042Z,6.72
2018-05-23T07:25:14.309Z,8.05
2018-05-23T07:25:47.567Z,7.78